Terminal Aerodrome Forecast
Issued by NWS

Home | Current Version | Previous Version | Text Only | Print | Product List | Glossary On
Versions: 1 2 3 4 5 6 7 8 9 10 11 12 13 14 15 16 17 18 19 20 21 22 23 24 25 26
103
FTUS41 KPBZ 191726
TAFDUJ
TAF
KDUJ 191726Z 1918/2018 28013G24KT 6SM -SHSN SCT015 OVC030
      TEMPO 1918/1921 2SM -SHSN OVC015
     FM192200 28012G24KT 6SM -SHSN OVC025
     FM200700 27012G23KT P6SM VCSH BKN025
     FM201300 26012G23KT P6SM BKN040=

USA.gov is the U.S. government's official web portal to all federal, state and local government web resources and services.